Aviation Digital Data Service (ADDS)

Output produced by METARs form (1717 UTC 24 June 2019)
found at http://www.aviationweather.gov/metar/data/
 
Forecast for: HDAM (AMBOULI DJIBOUTI, DJ)
Text: HDAM 241100Z 2412/2512 08010KT 9999 SKC
Forecast period: 1200 to 1500 UTC 24 June 2019
Forecast type: FROM: standard forecast or significant change
Winds: from the E (80 degrees) at 12 MPH (10 knots; 5.1 m/s)
Visibility: 6 or more miles 10+ km)
Clouds: clear skies
Weather: no significant weather forecast for this period
Text: BECMG 2415/2418 VRB05KT SKC
Forecast period: 1500 UTC 24 June 2019 to 0000 UTC 25 June 2019
Forecast type: BECOMING: Conditions expected to become as follows by 1800 UTC 24 June 2019
Winds: variable direction winds at 6 MPH (5 knots; 2.6 m/s)
Visibility: 6 or more miles 10+ km)
Clouds: clear skies
Weather: no significant weather forecast for this period
Text: BECMG 2500/2506 00000KT FEW133
Forecast period: 0000 to 1200 UTC 25 June 2019
Forecast type: BECOMING: Conditions expected to become as follows by 0600 UTC 25 June 2019
Winds: calm
Visibility: 6 or more miles 10+ km)
Ceiling: at least 12,000 feet AGL
Clouds: few clouds at 13300 feet AGL
Weather: no significant weather forecast for this period